createdAt,value
2022-12-13T12:18:23.306Z,11.68
2022-12-13T12:21:12.980Z,11.15
2022-12-13T12:23:55.656Z,14.43
2022-12-13T12:26:37.472Z,16.00
2022-12-13T12:29:39.701Z,16.07
2022-12-13T12:32:16.607Z,14.73
2022-12-13T12:34:56.079Z,14.77
2022-12-13T12:37:33.200Z,13.15
2022-12-13T12:40:24.077Z,14.45
2022-12-13T12:43:16.653Z,16.97
2022-12-13T12:46:27.471Z,19.07
2022-12-13T12:58:37.816Z,15.48
2022-12-13T13:01:23.778Z,15.85
2022-12-13T13:04:01.473Z,13.72
2022-12-13T13:06:39.804Z,12.58
2022-12-13T13:09:15.408Z,14.87
2022-12-13T13:11:57.465Z,13.08
2022-12-13T13:14:33.819Z,13.75
2022-12-13T13:17:43.466Z,17.05
2022-12-13T13:20:24.541Z,12.35
2022-12-13T13:23:31.899Z,11.70
2022-12-13T13:25:48.796Z,12.37
2022-12-13T13:28:16.515Z,13.93
2022-12-13T13:31:08.345Z,11.15
2022-12-13T13:33:51.553Z,6.95
2022-12-13T13:36:52.810Z,13.72
2022-12-13T13:40:02.845Z,10.43
2022-12-13T13:42:35.687Z,9.35
2022-12-13T13:48:20.670Z,10.03
2022-12-13T13:51:31.071Z,12.33
2022-12-13T13:54:37.404Z,10.88
2022-12-13T14:00:27.028Z,9.80
2022-12-13T14:03:46.646Z,8.95
2022-12-13T14:07:00.958Z,12.33
2022-12-13T14:10:12.919Z,19.35
2022-12-13T14:13:21.742Z,13.78
2022-12-13T14:16:41.466Z,15.60
2022-12-13T14:19:56.369Z,11.55
2022-12-13T14:22:33.882Z,14.05
2022-12-13T14:25:25.739Z,12.58
2022-12-13T14:28:05.521Z,15.63
2022-12-13T14:30:43.015Z,14.60
2022-12-13T14:33:25.031Z,18.02
2022-12-13T14:35:59.819Z,18.98
2022-12-13T14:38:33.433Z,18.48
2022-12-13T14:41:08.568Z,15.18
2022-12-13T14:43:46.973Z,20.30
2022-12-13T14:46:17.402Z,18.65
2022-12-13T14:48:53.543Z,19.57
2022-12-13T14:51:33.742Z,24.23
2022-12-13T14:54:08.729Z,20.92
2022-12-13T14:56:58.227Z,15.50
2022-12-13T14:59:33.450Z,20.68
2022-12-13T15:02:08.891Z,22.67
2022-12-13T15:04:41.892Z,19.80
2022-12-13T15:07:21.291Z,19.42
2022-12-13T15:09:57.427Z,19.60
2022-12-13T15:12:30.903Z,19.85
2022-12-13T15:15:06.537Z,16.50
2022-12-13T15:17:42.347Z,19.60
2022-12-13T15:20:35.211Z,18.65
2022-12-13T15:23:15.664Z,19.85
2022-12-13T15:25:56.044Z,21.57
2022-12-13T15:28:31.624Z,22.75
2022-12-13T15:31:07.671Z,21.42
2022-12-13T15:33:48.108Z,22.22
2022-12-13T15:36:19.782Z,25.72
2022-12-13T15:39:02.413Z,29.43
2022-12-13T15:41:38.166Z,21.90
2022-12-13T15:44:19.752Z,28.27
2022-12-13T15:46:54.862Z,32.28
2022-12-13T15:49:30.716Z,32.05
2022-12-13T15:52:05.765Z,34.45
2022-12-13T15:54:38.897Z,33.53
2022-12-13T15:57:17.859Z,39.30
2022-12-13T15:59:55.243Z,34.58
2022-12-13T16:02:30.166Z,28.30
2022-12-13T16:05:10.079Z,32.23
2022-12-13T16:07:56.417Z,24.95
2022-12-13T16:10:32.354Z,20.68
2022-12-13T16:13:08.281Z,24.23
2022-12-13T16:15:52.229Z,23.83
2022-12-13T16:18:29.697Z,25.57
2022-12-13T16:21:03.412Z,23.10
2022-12-13T16:23:38.055Z,24.77
2022-12-13T16:26:14.419Z,23.42
2022-12-13T16:28:48.157Z,23.07
2022-12-13T16:31:22.933Z,22.67
2022-12-13T16:33:56.046Z,21.37
2022-12-13T16:36:29.956Z,24.63
2022-12-13T16:39:02.825Z,22.55
2022-12-13T16:41:39.235Z,20.25
2022-12-13T16:44:16.434Z,22.73
2022-12-13T16:47:13.709Z,20.90
2022-12-13T16:49:26.748Z,22.80
2022-12-13T16:52:00.009Z,21.70
2022-12-13T16:54:33.014Z,20.88
2022-12-13T16:57:06.234Z,22.42
2022-12-13T16:59:39.392Z,22.82
2022-12-13T17:02:16.696Z,25.32
2022-12-13T17:04:49.702Z,22.90
2022-12-13T17:07:24.201Z,22.37
2022-12-13T17:09:59.158Z,22.70
2022-12-13T17:12:34.272Z,18.87
2022-12-13T17:15:09.615Z,20.55
2022-12-13T17:17:43.958Z,21.20
2022-12-13T17:20:20.027Z,24.00
2022-12-13T17:22:53.709Z,21.57
2022-12-13T17:25:27.700Z,20.12
2022-12-13T17:28:00.912Z,26.45
2022-12-13T17:30:36.098Z,20.00
2022-12-13T17:33:10.145Z,22.13
2022-12-13T17:35:43.107Z,20.55
2022-12-13T17:38:19.597Z,21.15
2022-12-13T17:40:56.319Z,22.15
2022-12-13T17:43:34.786Z,24.72
2022-12-13T17:46:06.008Z,19.15
2022-12-13T17:48:41.088Z,23.15
2022-12-13T17:53:56.202Z,19.75
2022-12-13T17:59:12.070Z,24.30
2022-12-13T18:01:52.713Z,23.30
2022-12-13T18:04:25.922Z,19.80
2022-12-13T18:06:59.312Z,25.25
2022-12-13T18:09:32.656Z,21.82
2022-12-13T18:12:09.751Z,23.85
2022-12-13T18:14:43.779Z,21.73
2022-12-13T18:17:18.620Z,21.80
2022-12-13T18:19:53.261Z,23.38
2022-12-13T18:22:35.512Z,25.50
2022-12-13T18:25:14.829Z,25.60
2022-12-13T18:27:47.920Z,24.72
2022-12-13T18:30:22.035Z,27.00
2022-12-13T18:32:55.774Z,24.37
2022-12-13T18:35:29.243Z,22.45
2022-12-13T18:38:06.880Z,25.55
2022-12-13T18:40:40.336Z,24.67
2022-12-13T18:43:13.871Z,29.02
2022-12-13T18:45:47.385Z,25.82
2022-12-13T18:48:20.911Z,23.42
2022-12-13T18:51:02.126Z,23.45
2022-12-13T18:53:40.379Z,22.35
2022-12-13T18:56:19.209Z,22.00
2022-12-13T18:58:58.223Z,26.12
2022-12-13T19:01:38.833Z,23.47
2022-12-13T19:04:17.268Z,22.07
2022-12-13T19:06:53.813Z,20.20
2022-12-13T19:09:28.904Z,25.60
2022-12-13T19:12:03.093Z,24.70
2022-12-13T19:14:36.230Z,23.52
2022-12-13T19:17:13.534Z,22.25
2022-12-13T19:19:48.635Z,22.98
2022-12-13T19:22:27.799Z,23.05
2022-12-13T19:28:01.745Z,22.60
2022-12-13T19:30:38.115Z,21.77
2022-12-13T19:33:19.014Z,19.95
2022-12-13T19:36:20.050Z,22.65
2022-12-13T19:39:20.945Z,26.50
2022-12-13T19:42:06.083Z,20.65
2022-12-13T19:44:46.653Z,24.50
2022-12-13T19:47:23.840Z,27.13
2022-12-13T19:50:23.016Z,26.48
2022-12-13T19:53:03.626Z,24.80
2022-12-13T19:55:42.203Z,23.60
2022-12-13T19:58:28.293Z,25.75
2022-12-13T20:01:30.405Z,22.05
2022-12-13T20:04:07.077Z,17.67
2022-12-13T20:06:43.980Z,12.07
2022-12-13T20:09:24.715Z,12.78
2022-12-13T20:12:04.280Z,7.08
2022-12-13T20:14:43.508Z,9.38
2022-12-13T20:17:17.397Z,6.03
2022-12-13T20:22:49.640Z,6.45
2022-12-13T20:25:27.970Z,10.35
2022-12-13T20:28:16.032Z,5.60
2022-12-13T20:30:53.175Z,9.10
2022-12-13T20:33:32.764Z,4.62
2022-12-13T20:36:27.753Z,6.58
2022-12-13T20:38:49.099Z,10.45
2022-12-13T20:41:27.635Z,11.78
2022-12-13T20:44:02.613Z,7.65
2022-12-13T20:46:38.091Z,5.90
2022-12-13T20:49:17.975Z,9.65
2022-12-13T20:51:56.918Z,5.83
2022-12-13T20:57:06.426Z,6.62
2022-12-13T20:59:39.602Z,10.10
2022-12-13T21:02:14.053Z,6.60
2022-12-13T21:04:47.271Z,8.18
2022-12-13T21:07:22.025Z,11.95
2022-12-13T21:09:57.725Z,11.85
2022-12-13T21:12:30.823Z,9.65
2022-12-13T21:15:03.994Z,10.60
2022-12-13T21:17:39.220Z,11.45
2022-12-13T21:20:13.289Z,9.73
2022-12-13T21:22:47.143Z,17.20
2022-12-13T21:25:20.747Z,10.45
2022-12-13T21:27:55.246Z,11.33
2022-12-13T21:30:29.711Z,9.93
2022-12-13T21:33:02.964Z,11.15
2022-12-13T21:35:36.411Z,12.23
2022-12-13T21:38:10.737Z,10.88
2022-12-13T21:40:48.332Z,11.80
2022-12-13T21:43:28.816Z,8.58
2022-12-13T21:48:34.716Z,7.28
2022-12-13T21:51:10.465Z,8.53
2022-12-13T21:53:44.188Z,10.15
2022-12-13T21:56:37.443Z,15.83
2022-12-13T21:59:22.389Z,11.53
2022-12-13T22:02:19.121Z,15.23
2022-12-13T22:04:57.750Z,24.92
2022-12-13T22:07:32.985Z,12.98
2022-12-13T22:10:07.459Z,14.60
2022-12-13T22:12:42.654Z,7.35
2022-12-13T22:15:17.183Z,7.92
2022-12-13T22:17:50.455Z,9.13
2022-12-13T22:20:23.637Z,7.47
2022-12-13T22:22:58.226Z,22.27
2022-12-13T22:25:31.577Z,10.55
2022-12-13T22:28:16.744Z,6.92
2022-12-13T23:01:09.782Z,9.10
2022-12-13T23:03:44.481Z,8.15
2022-12-13T23:06:20.000Z,7.40
2022-12-13T23:08:54.996Z,11.00
2022-12-13T23:11:48.630Z,5.85
2022-12-13T23:14:26.769Z,8.83
2022-12-13T23:16:59.988Z,7.80
2022-12-13T23:19:52.852Z,6.87
2022-12-13T23:22:10.001Z,9.70
2022-12-13T23:24:43.333Z,9.30
2022-12-13T23:27:16.634Z,6.47
2022-12-13T23:29:50.182Z,10.13
2022-12-13T23:32:25.727Z,9.55
2022-12-13T23:34:59.713Z,10.55
2022-12-13T23:37:35.670Z,10.88
2022-12-13T23:40:11.932Z,6.30
2022-12-13T23:42:46.132Z,12.68
2022-12-13T23:45:19.401Z,8.53
2022-12-13T23:47:52.528Z,10.82
2022-12-13T23:50:29.036Z,11.15
2022-12-13T23:53:02.224Z,8.48
2022-12-13T23:55:38.311Z,10.78
2022-12-13T23:58:12.534Z,6.62
